Sandgate, Vermont
Current Conditions -  °F | °C
As of 12:54 AM on Monday 29 Dec 2014 (Local Time) from KDDH Reporting Station
Broken Clouds Broken Clouds  
Wind Chill: 24°   Ceiling: 4800
Heat Index: 32°   Visibility: 10mi
Dew Point: 24°   Wind: 9mph
Humidity: 73%   Direction: 250°WSW
Pressure: 30.02"   Gusts: NA
Location:  43.1041°N, 73.154°W
Report Text: KDDH 290554Z AUTO 25008KT 10SM BKN048 00/M04 A3002 RMK AO2 SLP170 T00001044 10017 20000 51004
Loading
Personal Weather Stations






























Interactive Weather Map New forecast layout! Learn more

10-Day Weather Forecast

Advertisements
Track Severe Weather on mobile